KTCM/TCM METAR and TAF weather

Enter ICAO airport designator
Station Type Date Time Source
KTCM METAR 2020/03/28 08:48 UTC NOAA

KTCM 280848Z AUTO 18007KT 10SM BKN028 OVC043 07/06 A3004 RMK AO2 CIG 028V043 BKN V SCT SLP178 $


Station Type Date Time Source
KTCM Decoded METAR 2020/03/28 08:48 UTC NOAA

Tacoma / McChord Air Force Base, WA, United States (KTCM) 47-09N 122-29W 87M
Mar 28, 2020 - 04:48 AM EDT / 2020.03.28 0848 UTC
Wind: from the S (180 degrees) at 8 MPH (7 KT):0
Visibility: 10 mile(s):0
Sky conditions: overcast
Temperature: 44 F (7 C)
Dew Point: 42 F (6 C)
Relative Humidity: 93%
Pressure (altimeter): 30.04 in. Hg (1017 hPa)
ob: KTCM 280848Z AUTO 18007KT 10SM BKN028 OVC043 07/06 A3004 RMK AO2 CIG 028V043 BKN V SCT SLP178
cycle: 9

Station Type Date Time Source
KTCM TAF 2020/03/28 05:06 UTC NOAA

TAF KTCM 280500Z 2805/2911 19012KT 9999 OVC020 620309 QNH3000INS
TEMPO 2806/2812 8000 -RA BKN015
BECMG 2812/2813 22012KT 9000 -RA BKN020 620409 QNH2997INS
BECMG 2821/2822 20012G18KT 8000 -SHRA BKN020 610409 QNH2989INS
BECMG 2904/2905 20012KT 8000 -SHRA BKN015 610409 QNH2985INS TX10/2821Z TN05/2813Z

Example: see airport list